Station History

Weather Underground - logo

Station Historical Data
Daily Summary for December 30, 2017 Units:  Metric    English   Both
« Previous Day
Next Day »
Daily Weekly Monthly Yearly Custom
  High: Low: Average:
Temperature: -17.8 °C 0.8 °C 8 °C
Dew Point: -17.8 °C -0.2 °C 4.1 °C
Humidity: Humidity % 48 % 78 %
Wind Speed: 0 km/h 0 km/h 0.5 km/h
Wind Gust: 0 km/h - -
Wind:- - West
Pressure: 0 hPa 1017.5 hPa -
Precipitation: 0 mm    
Historical Graphs
 
 
Tabular Data for December 30, 2017
Time Temperature Dew Point Pressure Wind Wind Speed Wind Gust Humidity Rainfall Rate (Hourly)
-17.8 °C -17.8 °C 0 hPa Calm     Humidity % 0 mm
00:01 4.7 °C 2.9 °C 1021.6 hPa Calm     88 % 0 mm
00:06 4.8 °C 2.9 °C 1021.6 hPa Calm     88 % 0 mm
00:08 4.8 °C 2.9 °C 1021.6 hPa Calm     88 % 0 mm
00:13 4.8 °C 2.8 °C 1021.6 hPa Calm     87 % 0 mm
00:16 4.8 °C 2.8 °C 1021.2 hPa SW 1.6 km/h 1.6 km/h 87 % 0 mm
00:21 4.8 °C 2.8 °C 1021.2 hPa WSW 1.9 km/h   87 % 0 mm
00:23 4.8 °C 2.8 °C 1021.2 hPa Calm     87 % 0 mm
00:29 4.7 °C 2.7 °C 1021.2 hPa WSW 1.9 km/h   87 % 0 mm
00:34 4.7 °C 2.7 °C 1021.2 hPa Calm     87 % 0 mm
00:41 4.5 °C 2.5 °C 1021.2 hPa Calm     87 % 0 mm
00:42 4.4 °C 2.4 °C 1021.2 hPa Calm     87 % 0 mm
00:47 4.3 °C 2.3 °C 1021.2 hPa Calm     87 % 0 mm
00:48 4.2 °C 2.2 °C 1021.2 hPa Calm     87 % 0 mm
00:51 4.1 °C 2.2 °C 1021.2 hPa Calm     87 % 0 mm
00:53 4 °C 2.1 °C 1021.2 hPa Calm     87 % 0 mm
00:58 3.9 °C 2.3 °C 1021.2 hPa Calm     89 % 0 mm
01:00 3.9 °C 2.3 °C 1021.2 hPa Calm     89 % 0 mm
01:05 4.2 °C 2.8 °C 1021.2 hPa Calm     91 % 0 mm
01:07 4.3 °C 2.8 °C 1020.9 hPa Calm     90 % 0 mm
01:11 4.4 °C 2.9 °C 1021.2 hPa Calm     90 % 0 mm
01:16 4.6 °C 2.9 °C 1021.2 hPa Calm     89 % 0 mm
01:20 4.6 °C 2.7 °C 1021.2 hPa Calm     88 % 0 mm
01:25 4.4 °C 2.6 °C 1021.2 hPa Calm     88 % 0 mm
01:28 4.2 °C 2.2 °C 1021.2 hPa Calm     87 % 0 mm
01:33 3.7 °C 1.7 °C 1021.2 hPa Calm     87 % 0 mm
01:38 3.5 °C 1.8 °C 1021.2 hPa Calm     89 % 0 mm
01:39 3.5 °C 2 °C 1021.2 hPa Calm     90 % 0 mm
01:44 3.7 °C 2.4 °C 1021.2 hPa Calm     91 % 0 mm
01:49 3.7 °C 2.2 °C 1021.2 hPa Calm     90 % 0 mm
01:52 3.8 °C 2.3 °C 1021.2 hPa West 1.9 km/h   90 % 0 mm
01:53 3.9 °C 2.6 °C 1021.2 hPa Calm     91 % 0 mm
01:58 4.3 °C 2.8 °C 1021.2 hPa Calm     90 % 0 mm
02:02 4.4 °C 2.8 °C 1021.2 hPa Calm     89 % 0 mm
02:03 4.5 °C 2.8 °C 1021.2 hPa Calm     89 % 0 mm
02:08 4.7 °C 2.8 °C 1021.2 hPa West 1.9 km/h   88 % 0 mm
02:12 4.8 °C 2.9 °C 1021.2 hPa WNW 1.9 km/h   88 % 0 mm
02:13 4.8 °C 2.8 °C 1021.2 hPa NNW 1.9 km/h 1.9 km/h 87 % 0 mm
02:18 4.8 °C 2.8 °C 1021.2 hPa Calm     87 % 0 mm
02:21 4.9 °C 2.9 °C 1021.2 hPa Calm     87 % 0 mm
02:26 4.9 °C 2.9 °C 1021.2 hPa Calm     87 % 0 mm
02:28 5 °C 3 °C 1021.2 hPa Calm     87 % 0 mm
02:33 4.6 °C 2.4 °C 1021.2 hPa Calm     86 % 0 mm
02:34 4.6 °C 2.4 °C 1021.2 hPa Calm     86 % 0 mm
02:39 4.4 °C 2.4 °C 1021.6 hPa Calm     87 % 0 mm
02:40 4.4 °C 2.4 °C 1021.2 hPa Calm     87 % 0 mm
02:45 4.3 °C 2.3 °C 1021.2 hPa Calm     87 % 0 mm
02:47 4.1 °C 2 °C 1021.2 hPa Calm     86 % 0 mm
02:50 3.8 °C 1.7 °C 1021.2 hPa Calm     86 % 0 mm
02:55 3.5 °C 1.6 °C 1021.2 hPa Calm     87 % 0 mm
03:00 3.2 °C 1.2 °C 1021.6 hPa Calm     87 % 0 mm
03:01 3.1 °C 1.2 °C 1021.6 hPa Calm     87 % 0 mm
03:06 2.8 °C 1.1 °C 1021.2 hPa Calm     88 % 0 mm
03:12 2.6 °C 1 °C 1021.6 hPa Calm     89 % 0 mm
03:17 2.4 °C 0.8 °C 1021.2 hPa Calm     89 % 0 mm
03:21 2.3 °C 0.8 °C 1021.2 hPa Calm     90 % 0 mm
03:26 2.2 °C 0.7 °C 1021.2 hPa Calm     90 % 0 mm
03:27 2.2 °C 0.7 °C 1021.6 hPa Calm     90 % 0 mm
03:32 2.1 °C 0.6 °C 1021.6 hPa Calm     90 % 0 mm
03:36 1.9 °C 0.5 °C 1021.2 hPa Calm     90 % 0 mm
03:39 1.8 °C 0.4 °C 1021.2 hPa Calm     90 % 0 mm
03:44 1.7 °C 0.4 °C 1021.2 hPa Calm     91 % 0 mm
03:49 1.7 °C 0.3 °C 1021.2 hPa Calm     91 % 0 mm
03:50 1.7 °C 0.3 °C 1021.2 hPa Calm     91 % 0 mm
03:55 1.7 °C 0.6 °C 1021.6 hPa Calm     92 % 0 mm
03:56 1.7 °C 0.6 °C 1021.6 hPa Calm     92 % 0 mm
04:01 1.7 °C 0.6 °C 1021.6 hPa Calm     92 % 0 mm
04:02 1.7 °C 0.6 °C 1021.6 hPa Calm     92 % 0 mm
04:06 1.8 °C 0.6 °C 1021.6 hPa Calm     92 % 0 mm
04:11 1.7 °C 0.6 °C 1021.6 hPa Calm     92 % 0 mm
04:16 1.8 °C 0.6 °C 1021.2 hPa Calm     92 % 0 mm
04:17 1.8 °C 0.6 °C 1021.6 hPa Calm     92 % 0 mm
04:22 1.8 °C 0.8 °C 1021.6 hPa Calm     93 % 0 mm
04:27 1.9 °C 0.9 °C 1021.2 hPa Calm     93 % 0 mm
04:31 2 °C 1 °C 1021.2 hPa Calm     93 % 0 mm
04:32 2 °C 1 °C 1021.2 hPa Calm     93 % 0 mm
04:37 2.1 °C 1.1 °C 1021.2 hPa Calm     93 % 0 mm
04:41 2.1 °C 1.1 °C 1021.2 hPa Calm     93 % 0 mm
04:46 2.2 °C 1.2 °C 1021.2 hPa Calm     93 % 0 mm
04:51 2.3 °C 1.3 °C 1021.2 hPa Calm     93 % 0 mm
04:52 2.4 °C 1.4 °C 1021.2 hPa Calm     93 % 0 mm
04:57 2.4 °C 1.4 °C 1021.2 hPa Calm     93 % 0 mm
05:02 2.4 °C 1.3 °C 1021.2 hPa Calm     92 % 0 mm
05:04 2.4 °C 1.3 °C 1021.2 hPa Calm     92 % 0 mm
05:08 2.4 °C 1.2 °C 1021.2 hPa Calm     92 % 0 mm
05:13 2.4 °C 1.2 °C 1021.2 hPa Calm     92 % 0 mm
05:14 2.4 °C 1.3 °C 1021.2 hPa Calm     92 % 0 mm
05:19 2.3 °C 1.2 °C 1021.2 hPa Calm     92 % 0 mm
05:24 2.4 °C 1.2 °C 1021.2 hPa Calm     92 % 0 mm
05:25 2.4 °C 1.2 °C 1021.2 hPa Calm     92 % 0 mm
05:30 2.3 °C 1.2 °C 1021.2 hPa Calm     92 % 0 mm
05:32 2.3 °C 1.1 °C 1021.2 hPa Calm     92 % 0 mm
05:36 2.2 °C 1.1 °C 1021.2 hPa Calm     92 % 0 mm
05:37 2.2 °C 1.1 °C 1021.2 hPa Calm     92 % 0 mm
05:42 2.1 °C 0.9 °C 1021.2 hPa Calm     92 % 0 mm
05:43 2.1 °C 0.9 °C 1021.2 hPa Calm     92 % 0 mm
05:45 2 °C 0.8 °C 1021.2 hPa Calm     92 % 0 mm
05:49 1.9 °C 0.7 °C 1021.2 hPa Calm     92 % 0 mm
05:50 1.9 °C 0.7 °C 1021.2 hPa Calm     92 % 0 mm
05:54 1.9 °C 0.7 °C 1021.2 hPa Calm     92 % 0 mm
05:59 1.8 °C 0.7 °C 1021.2 hPa Calm     92 % 0 mm
06:02 1.9 °C 0.7 °C 1021.2 hPa Calm     92 % 0 mm
06:07 1.8 °C 0.7 °C 1021.2 hPa Calm     92 % 0 mm
06:11 1.7 °C 0.5 °C 1021.2 hPa Calm     92 % 0 mm
06:16 1.4 °C 0.3 °C 1021.2 hPa Calm     92 % 0 mm
06:17 1.4 °C 0.3 °C 1021.2 hPa Calm     92 % 0 mm
06:22 1.4 °C 0.2 °C 1021.6 hPa Calm     92 % 0 mm
06:23 1.3 °C 0.2 °C 1021.6 hPa Calm     92 % 0 mm
06:28 1.3 °C 0.1 °C 1021.6 hPa Calm     92 % 0 mm
06:29 1.3 °C 0.1 °C 1021.6 hPa Calm     92 % 0 mm
06:34 1.1 °C -0.1 °C 1021.6 hPa Calm     92 % 0 mm
06:36 1.1 °C -0.1 °C 1021.6 hPa Calm     92 % 0 mm
06:41 0.9 °C -0.2 °C 1021.6 hPa Calm     92 % 0 mm
06:46 0.9 °C -0.1 °C 1021.6 hPa Calm     93 % 0 mm
06:47 0.9 °C -0.1 °C 1021.6 hPa Calm     93 % 0 mm
06:52 0.9 °C -0.1 °C 1021.6 hPa Calm     93 % 0 mm
06:53 0.9 °C -0.1 °C 1021.6 hPa Calm     93 % 0 mm
06:58 0.9 °C -0.1 °C 1021.6 hPa Calm     93 % 0 mm
07:00 0.8 °C -0.2 °C 1021.6 hPa Calm     93 % 0 mm
07:05 0.9 °C -0.1 °C 1021.6 hPa Calm     93 % 0 mm
07:06 0.9 °C -0.1 °C 1021.6 hPa Calm     93 % 0 mm
07:11 1 °C 0.2 °C 1021.6 hPa Calm     94 % 0 mm
07:16 1 °C 0 °C 1021.6 hPa Calm     93 % 0 mm
07:19 0.9 °C -0.1 °C 1021.6 hPa Calm     93 % 0 mm
07:22 0.9 °C -0.1 °C 1021.6 hPa Calm     93 % 0 mm
07:27 0.9 °C -0.1 °C 1021.6 hPa Calm     93 % 0 mm
07:28 0.9 °C -0.1 °C 1021.6 hPa Calm     93 % 0 mm
07:33 0.9 °C -0.1 °C 1021.6 hPa Calm     93 % 0 mm
07:36 0.9 °C -0.1 °C 1021.6 hPa Calm     93 % 0 mm
07:37 0.9 °C -0.1 °C 1021.6 hPa Calm     93 % 0 mm
07:43 1.1 °C 0.2 °C 1021.6 hPa Calm     94 % 0 mm
07:44 1.1 °C 0.2 °C 1021.6 hPa Calm     94 % 0 mm
07:49 1.2 °C 0.3 °C 1021.6 hPa Calm     94 % 0 mm
07:50 1.2 °C 0.3 °C 1021.6 hPa Calm     94 % 0 mm
07:55 1.3 °C 0.4 °C 1021.6 hPa Calm     94 % 0 mm
07:56 1.3 °C 0.5 °C 1021.6 hPa Calm     94 % 0 mm
08:01 1.5 °C 0.7 °C 1021.6 hPa Calm     94 % 0 mm
08:06 2 °C 1.1 °C 1021.6 hPa Calm     94 % 0 mm
08:08 2.3 °C 1.6 °C 1021.6 hPa Calm     95 % 0 mm
08:13 3.1 °C 2.4 °C 1021.6 hPa Calm     95 % 0 mm
08:14 3.3 °C 2.6 °C 1021.6 hPa Calm     95 % 0 mm
08:18 3.8 °C 2.9 °C 1021.6 hPa Calm     94 % 0 mm
08:23 4.4 °C 3.3 °C 1021.6 hPa Calm     92 % 0 mm
08:26 4.9 °C 3.4 °C 1021.6 hPa Calm     90 % 0 mm
08:30 5.5 °C 3.5 °C 1021.6 hPa Calm     87 % 0 mm
08:31 5.6 °C 3.6 °C 1021.6 hPa Calm     87 % 0 mm
08:36 5.5 °C 3.3 °C 1021.6 hPa Calm     86 % 0 mm
08:37 5.4 °C 3.3 °C 1021.6 hPa Calm     86 % 0 mm
08:42 5.6 °C 3.4 °C 1021.9 hPa Calm     86 % 0 mm
08:43 5.6 °C 3.4 °C 1021.9 hPa Calm     86 % 0 mm
08:45 5.7 °C 3.6 °C 1021.9 hPa Calm     86 % 0 mm
08:49 6.1 °C 4.1 °C 1021.9 hPa SSW 1.6 km/h 1.6 km/h 87 % 0 mm
08:54 6.8 °C 4.5 °C 1022.2 hPa Calm     85 % 0 mm
08:55 6.9 °C 4.6 °C 1022.2 hPa Calm     85 % 0 mm
08:58 7.3 °C 4.8 °C 1022.2 hPa Calm   0.2 km/h 84 % 0 mm
09:03 7.7 °C 4.8 °C 1022.2 hPa Calm     82 % 0 mm
09:07 8 °C 4.9 °C 1022.2 hPa SSE 1.9 km/h 1.9 km/h 81 % 0 mm
09:09 8.1 °C 4.6 °C 1022.2 hPa SSE 1.9 km/h   79 % 0 mm
09:14 8.2 °C 4.6 °C 1022.2 hPa Calm     78 % 0 mm
09:15 8.1 °C 4.4 °C 1022.2 hPa Calm     78 % 0 mm
09:21 7.8 °C 4.6 °C 1022.2 hPa Calm     80 % 0 mm
09:23 7.8 °C 4.4 °C 1022.2 hPa Calm     79 % 0 mm
09:28 8 °C 4.8 °C 1022.2 hPa Calm     80 % 0 mm
09:30 8.2 °C 4.7 °C 1022.2 hPa Calm     79 % 0 mm
09:35 8.5 °C 4.9 °C 1022.2 hPa ENE 1.9 km/h 1.9 km/h 78 % 0 mm
09:37 8.6 °C 4.9 °C 1022.2 hPa Calm     78 % 0 mm
09:38 8.6 °C 5 °C 1022.2 hPa Calm     78 % 0 mm
09:43 8.9 °C 5.1 °C 1022.2 hPa SE 1.9 km/h   77 % 0 mm
09:46 9 °C 5 °C 1022.2 hPa SE 1.6 km/h   76 % 0 mm
09:47 9.1 °C 5.1 °C 1022.2 hPa SE 1.9 km/h   76 % 0 mm
09:52 9.6 °C 5.3 °C 1022.6 hPa Calm     75 % 0 mm
09:53 9.7 °C 5.4 °C 1022.6 hPa Calm     75 % 0 mm
09:54 9.7 °C 5.3 °C 1022.6 hPa Calm     74 % 0 mm
09:59 9.8 °C 5.4 °C 1022.2 hPa Calm     74 % 0 mm
10:03 10.1 °C 5.6 °C 1022.2 hPa Calm     74 % 0 mm
10:08 10.2 °C 5.3 °C 1021.9 hPa WNW 1.9 km/h   72 % 0 mm
10:09 10.2 °C 5.2 °C 1021.9 hPa Calm     71 % 0 mm
10:14 10.4 °C 5.8 °C 1021.9 hPa Calm     73 % 0 mm
10:15 10.5 °C 5.7 °C 1021.9 hPa Calm     72 % 0 mm
10:16 10.6 °C 5.7 °C 1021.9 hPa Calm     72 % 0 mm
10:21 11.2 °C 5.9 °C 1021.9 hPa East 1.9 km/h 1.9 km/h 70 % 0 mm
10:26 11.4 °C 5.7 °C 1021.9 hPa Calm     68 % 0 mm
10:32 11.7 °C 5.5 °C 1021.9 hPa WNW 1.9 km/h 1.9 km/h 66 % 0 mm
10:34 11.7 °C 5.8 °C 1021.9 hPa Calm     67 % 0 mm
10:39 12 °C 5.8 °C 1021.6 hPa Calm     66 % 0 mm
10:45 12.3 °C 6.1 °C 1021.6 hPa Calm     66 % 0 mm
10:46 12.4 °C 6 °C 1021.6 hPa Calm     65 % 0 mm
10:48 12.6 °C 6.4 °C 1021.2 hPa Calm     66 % 0 mm
10:51 12.7 °C 6.1 °C 1021.2 hPa Calm     64 % 0 mm
10:52 12.7 °C 6.1 °C 1021.2 hPa Calm     64 % 0 mm
10:56 12.8 °C 5.9 °C 1021.2 hPa Calm     63 % 0 mm
11:00 12.8 °C 5.7 °C 1021.2 hPa Calm     62 % 0 mm
11:03 12.7 °C 5.6 °C 1021.2 hPa West 1.9 km/h   62 % 0 mm
11:08 12.7 °C 5.8 °C 1020.9 hPa Calm     63 % 0 mm
11:09 12.7 °C 6.1 °C 1020.9 hPa Calm     64 % 0 mm
11:14 12.8 °C 5.9 °C 1020.9 hPa NW 1.9 km/h 1.9 km/h 63 % 0 mm
11:15 12.8 °C 5.9 °C 1020.9 hPa Calm     63 % 0 mm
11:20 12.8 °C 5.9 °C 1020.9 hPa Calm     63 % 0 mm
11:21 12.8 °C 6.2 °C 1020.9 hPa Calm     64 % 0 mm
11:26 13.1 °C 5.9 °C 1020.9 hPa NW 1.9 km/h 1.9 km/h 62 % 0 mm
11:31 13.2 °C 6.1 °C 1020.5 hPa WNW 1.9 km/h 1.9 km/h 62 % 0 mm
11:35 13.4 °C 6.3 °C 1020.5 hPa Calm     62 % 0 mm
11:39 13.6 °C 6.4 °C 1020.5 hPa WNW 1.6 km/h   62 % 0 mm
11:44 13.9 °C 6.2 °C 1020.5 hPa WNW 1.9 km/h 1.9 km/h 60 % 0 mm
11:46 14 °C 6.6 °C 1020.2 hPa WNW 1.6 km/h 1.6 km/h 61 % 0 mm
11:51 14.3 °C 6.7 °C 1020.2 hPa NW 1.6 km/h 1.6 km/h 60 % 0 mm
11:56 14.4 °C 6.7 °C 1020.2 hPa Calm   0.2 km/h 60 % 0 mm
11:57 14.4 °C 6.5 °C 1020.2 hPa WNW 1.9 km/h 1.9 km/h 59 % 0 mm
11:59 14.4 °C 6.5 °C 1020.2 hPa Calm     59 % 0 mm
12:03 14.4 °C 6.8 °C 1020.2 hPa Calm     60 % 0 mm
12:08 14.6 °C 6.4 °C 1019.9 hPa NW 3.7 km/h 3.7 km/h 58 % 0 mm
12:11 14.7 °C 6.2 °C 1019.9 hPa NW 1.9 km/h 1.9 km/h 57 % 0 mm
12:15 14.8 °C 6.3 °C 1019.9 hPa Calm     57 % 0 mm
12:20 15 °C 6.3 °C 1019.9 hPa WNW 1.9 km/h 1.9 km/h 56 % 0 mm
12:22 15.1 °C 6.4 °C 1019.9 hPa WNW 3.7 km/h 3.7 km/h 56 % 0 mm
12:27 15.4 °C 6.7 °C 1019.9 hPa NW 3.7 km/h 3.7 km/h 56 % 0 mm
12:29 15.4 °C 6.4 °C 1019.9 hPa NW 3.7 km/h 3.7 km/h 55 % 0 mm
12:34 15.4 °C 6.4 °C 1019.9 hPa NW 1.9 km/h 1.9 km/h 55 % 0 mm
12:38 15.5 °C 6.8 °C 1019.9 hPa NW 3.7 km/h 3.7 km/h 56 % 0 mm
12:40 15.6 °C 6.6 °C 1019.5 hPa North 5.6 km/h 5.6 km/h 55 % 0 mm
12:44 15.6 °C 6.6 °C 1019.5 hPa NW 1.9 km/h 1.9 km/h 55 % 0 mm
12:46 15.6 °C 6.8 °C 1019.5 hPa Calm     56 % 0 mm
12:50 15.7 °C 6.7 °C 1019.5 hPa WNW 3.7 km/h 3.7 km/h 55 % 0 mm
12:51 15.7 °C 6.7 °C 1019.5 hPa WNW 3.7 km/h 3.7 km/h 55 % 0 mm
12:56 15.8 °C 6.5 °C 1019.5 hPa NW 3.2 km/h 3.2 km/h 54 % 0 mm
12:58 15.8 °C 6.6 °C 1019.2 hPa WSW 3.7 km/h 3.7 km/h 54 % 0 mm
13:03 15.9 °C 6.8 °C 1019.2 hPa Calm     55 % 0 mm
13:06 16 °C 6.9 °C 1019.2 hPa NW 3.7 km/h 3.7 km/h 55 % 0 mm
13:15 16.1 °C 6.4 °C 1019.2 hPa NNE 3.7 km/h 3.7 km/h 53 % 0 mm
13:16 16.1 °C 6.4 °C 1019.2 hPa NNE 3.7 km/h 3.7 km/h 53 % 0 mm
13:17 16.1 °C 6.4 °C 1019.2 hPa NNE 3.7 km/h 3.7 km/h 53 % 0 mm
13:22 16.1 °C 6.4 °C 1018.8 hPa Calm     53 % 0 mm
13:24 16.1 °C 6.4 °C 1018.8 hPa Calm     53 % 0 mm
13:27 16.3 °C 6.7 °C 1018.8 hPa Calm     53 % 0 mm
13:30 16.4 °C 6.8 °C 1018.8 hPa WNW 1.9 km/h 1.9 km/h 53 % 0 mm
13:35 16.5 °C 6.6 °C 1018.8 hPa NW 1.9 km/h 1.9 km/h 52 % 0 mm
13:40 16.7 °C 6.8 °C 1018.8 hPa North 3.2 km/h 3.2 km/h 52 % 0 mm
13:41 16.7 °C 6.8 °C 1018.8 hPa NW 3.7 km/h 3.7 km/h 52 % 0 mm
13:44 16.7 °C 7.1 °C 1018.5 hPa Calm     53 % 0 mm
13:47 16.8 °C 6.8 °C 1018.5 hPa NW 1.9 km/h 1.9 km/h 52 % 0 mm
13:50 16.9 °C 6.7 °C 1018.5 hPa WNW 3.7 km/h 3.7 km/h 51 % 0 mm
13:55 17.1 °C 6.9 °C 1018.5 hPa NW 1.6 km/h 2.1 km/h 51 % 0 mm
13:56 17.1 °C 6.9 °C 1018.5 hPa NW 5.6 km/h 5.6 km/h 51 % 0 mm
14:01 17.2 °C 6.3 °C 1018.2 hPa NW 5.6 km/h 5.6 km/h 49 % 0 mm
14:04 17.2 °C 6.7 °C 1018.5 hPa NW 3.7 km/h 3.7 km/h 50 % 0 mm
14:07 17.3 °C 6.8 °C 1018.5 hPa Calm     50 % 0 mm
14:12 17.6 °C 6.7 °C 1018.2 hPa NW 3.2 km/h 3.2 km/h 49 % 0 mm
14:13 17.6 °C 6.4 °C 1018.2 hPa NW 5.6 km/h 5.6 km/h 48 % 0 mm
14:18 17.4 °C 6.6 °C 1018.2 hPa Calm     49 % 0 mm
14:22 17.4 °C 6.6 °C 1017.8 hPa NW 1.9 km/h 1.9 km/h 49 % 0 mm
14:27 17.4 °C 6.6 °C 1017.8 hPa NW 3.7 km/h 3.7 km/h 49 % 0 mm
14:28 17.4 °C 6.6 °C 1017.8 hPa NW 1.9 km/h 1.9 km/h 49 % 0 mm
14:33 17.3 °C 6.4 °C 1017.8 hPa NW 1.9 km/h 1.9 km/h 49 % 0 mm
14:37 17.3 °C 6.5 °C 1017.8 hPa WNW 3.7 km/h 3.7 km/h 49 % 0 mm
14:40 17.3 °C 6.8 °C 1017.8 hPa NW 3.7 km/h 3.7 km/h 50 % 0 mm
14:43 17.3 °C 6.8 °C 1017.8 hPa WNW 1.9 km/h 1.9 km/h 50 % 0 mm
14:47 17.3 °C 6.8 °C 1017.8 hPa NNW 1.9 km/h 1.9 km/h 50 % 0 mm
14:48 17.3 °C 6.8 °C 1017.8 hPa NW 1.9 km/h 1.9 km/h 50 % 0 mm
14:54 17.2 °C 6.7 °C 1017.8 hPa Calm     50 % 0 mm
14:55 17.2 °C 6.7 °C 1017.8 hPa WNW 1.9 km/h 1.9 km/h 50 % 0 mm
14:59 17.1 °C 6.8 °C 1017.8 hPa WNW 1.9 km/h 1.9 km/h 51 % 0 mm
15:01 17 °C 6.5 °C 1017.8 hPa WNW 1.9 km/h   50 % 0 mm
15:04 16.9 °C 6.7 °C 1017.8 hPa NW 1.9 km/h 1.9 km/h 51 % 0 mm
15:07 16.9 °C 6.4 °C 1017.8 hPa NW 1.9 km/h 1.9 km/h 50 % 0 mm
15:09 16.9 °C 6.4 °C 1017.8 hPa NW 1.9 km/h 1.9 km/h 50 % 0 mm
15:14 16.9 °C 6.9 °C 1017.8 hPa NW 1.9 km/h   52 % 0 mm
15:15 16.9 °C 6.9 °C 1017.8 hPa Calm     52 % 0 mm
15:20 16.8 °C 7.4 °C 1017.8 hPa Calm     54 % 0 mm
15:25 16.7 °C 6.8 °C 1017.8 hPa WNW 1.9 km/h 1.9 km/h 52 % 0 mm
15:26 16.7 °C 6.8 °C 1017.8 hPa NW 1.9 km/h 1.9 km/h 52 % 0 mm
15:31 16.6 °C 7 °C 1017.8 hPa Calm     53 % 0 mm
15:33 16.6 °C 7 °C 1017.8 hPa Calm     53 % 0 mm
15:35 16.5 °C 6.9 °C 1017.8 hPa Calm     53 % 0 mm
15:39 16.4 °C 7.1 °C 1017.8 hPa Calm     54 % 0 mm
15:42 16.3 °C 7.2 °C 1017.8 hPa Calm     55 % 0 mm
15:47 16.1 °C 7.3 °C 1017.8 hPa Calm     56 % 0 mm
15:48 16 °C 7.2 °C 1017.8 hPa Calm     56 % 0 mm
15:51 15.9 °C 7.1 °C 1017.8 hPa NW 1.9 km/h   56 % 0 mm
15:53 15.8 °C 7.3 °C 1017.8 hPa Calm     57 % 0 mm
15:58 15.6 °C 7.1 °C 1017.8 hPa WNW 1.9 km/h 1.9 km/h 57 % 0 mm
15:59 15.5 °C 7 °C 1017.8 hPa Calm     57 % 0 mm
16:04 15.3 °C 7.1 °C 1017.8 hPa WNW 1.9 km/h   58 % 0 mm
16:09 15.2 °C 6.9 °C 1017.5 hPa Calm     58 % 0 mm
16:13 15.1 °C 6.9 °C 1017.5 hPa Calm     58 % 0 mm
16:14 15.1 °C 6.9 °C 1017.5 hPa Calm     58 % 0 mm
16:19 15 °C 6.8 °C 1017.5 hPa Calm     58 % 0 mm
16:20 15 °C 6.8 °C 1017.5 hPa Calm     58 % 0 mm
16:25 14.7 °C 7.1 °C 1017.5 hPa Calm     60 % 0 mm
16:26 14.7 °C 7 °C 1017.5 hPa Calm     60 % 0 mm
16:30 14.3 °C 6.9 °C 1017.5 hPa Calm     61 % 0 mm
16:36 14 °C 6.8 °C 1017.8 hPa Calm     62 % 0 mm
16:40 13.7 °C 6.8 °C 1017.8 hPa Calm     63 % 0 mm
16:43 13.5 °C 6.8 °C 1017.8 hPa Calm     64 % 0 mm
16:47 13.2 °C 6.6 °C 1017.8 hPa Calm     64 % 0 mm
16:49 13.1 °C 6.6 °C 1017.8 hPa Calm     65 % 0 mm
16:52 12.9 °C 6.7 °C 1017.8 hPa Calm     66 % 0 mm
16:57 12.6 °C 6.7 °C 1017.8 hPa Calm     67 % 0 mm
16:58 12.6 °C 6.6 °C 1017.8 hPa Calm     67 % 0 mm
17:03 12.3 °C 6.6 °C 1018.2 hPa Calm     68 % 0 mm
17:05 12.2 °C 6.5 °C 1018.2 hPa Calm     68 % 0 mm
17:06 12.2 °C 6.4 °C 1018.2 hPa Calm     68 % 0 mm
17:10 12 °C 6.5 °C 1018.2 hPa Calm     69 % 0 mm
17:15 11.7 °C 6.4 °C 1017.8 hPa Calm     70 % 0 mm
17:17 11.6 °C 6.3 °C 1017.8 hPa Calm     70 % 0 mm
17:20 11.5 °C 6.4 °C 1017.8 hPa Calm     71 % 0 mm
17:23 11.3 °C 6.4 °C 1018.2 hPa Calm     72 % 0 mm
17:28 11.1 °C 6.4 °C 1018.2 hPa Calm     73 % 0 mm
17:29 10.9 °C 6.3 °C 1018.2 hPa Calm     73 % 0 mm
17:34 10.8 °C 6.3 °C 1017.8 hPa Calm     74 % 0 mm
17:36 10.8 °C 6.3 °C 1018.2 hPa Calm     74 % 0 mm
17:37 10.7 °C 6.4 °C 1018.2 hPa Calm     75 % 0 mm
17:42 10.6 °C 6.3 °C 1018.2 hPa Calm     75 % 0 mm
17:47 10.4 °C 6.3 °C 1018.2 hPa Calm     76 % 0 mm
17:48 10.4 °C 6.3 °C 1018.2 hPa Calm     76 % 0 mm
17:53 10.2 °C 6.2 °C 1018.2 hPa Calm     76 % 0 mm
17:55 10.2 °C 6.3 °C 1018.2 hPa Calm     77 % 0 mm
18:00 9.9 °C 6.1 °C 1018.2 hPa Calm     77 % 0 mm
18:02 9.9 °C 6.1 °C 1018.2 hPa Calm     77 % 0 mm
18:03 9.8 °C 6 °C 1018.2 hPa Calm     77 % 0 mm
18:08 9.7 °C 5.8 °C 1018.2 hPa Calm     77 % 0 mm
18:09 9.7 °C 6 °C 1018.2 hPa Calm     78 % 0 mm
18:14 9.6 °C 5.9 °C 1018.2 hPa Calm     78 % 0 mm
18:15 9.6 °C 5.9 °C 1018.2 hPa Calm     78 % 0 mm
18:18 9.6 °C 6.1 °C 1018.2 hPa Calm     79 % 0 mm
18:20 9.5 °C 5.8 °C 1017.8 hPa Calm     78 % 0 mm
18:25 9.3 °C 5.9 °C 1017.8 hPa Calm     79 % 0 mm
18:26 9.3 °C 5.8 °C 1018.2 hPa Calm     79 % 0 mm
18:31 9.1 °C 5.7 °C 1018.2 hPa Calm     79 % 0 mm
18:32 9.1 °C 5.6 °C 1018.2 hPa Calm     79 % 0 mm
18:37 8.8 °C 5.5 °C 1018.2 hPa Calm     80 % 0 mm
18:40 8.7 °C 5.4 °C 1018.2 hPa Calm     80 % 0 mm
18:45 8.3 °C 5.3 °C 1018.2 hPa Calm     81 % 0 mm
18:46 8.3 °C 5.3 °C 1018.2 hPa Calm     81 % 0 mm
18:47 8.3 °C 5.4 °C 1018.2 hPa Calm     82 % 0 mm
18:52 8.1 °C 5.2 °C 1018.2 hPa Calm     82 % 0 mm
18:53 8.1 °C 5.2 °C 1018.2 hPa Calm     82 % 0 mm
18:54 8 °C 5.1 °C 1018.2 hPa Calm     82 % 0 mm
18:59 7.8 °C 4.9 °C 1018.2 hPa Calm     82 % 0 mm
19:04 7.7 °C 4.9 °C 1018.2 hPa Calm     83 % 0 mm
19:06 7.6 °C 4.8 °C 1018.2 hPa Calm     83 % 0 mm
19:12 7.6 °C 5 °C 1018.2 hPa Calm     84 % 0 mm
19:21 7.6 °C 4.9 °C 1018.2 hPa Calm     83 % 0 mm
19:25 7.5 °C 4.9 °C 1018.2 hPa Calm     84 % 0 mm
19:30 7.3 °C 4.8 °C 1018.2 hPa Calm     84 % 0 mm
19:31 7.3 °C 4.8 °C 1018.5 hPa Calm     84 % 0 mm
19:36 7.2 °C 4.8 °C 1018.5 hPa Calm     85 % 0 mm
19:39 7.1 °C 4.7 °C 1018.5 hPa Calm     85 % 0 mm
19:43 6.9 °C 4.6 °C 1018.5 hPa Calm     85 % 0 mm
19:48 6.9 °C 4.7 °C 1018.5 hPa Calm     86 % 0 mm
19:53 6.8 °C 4.8 °C 1018.2 hPa Calm     87 % 0 mm
19:54 6.8 °C 4.8 °C 1018.2 hPa Calm     87 % 0 mm
19:55 6.8 °C 4.8 °C 1018.2 hPa Calm     87 % 0 mm
20:00 6.8 °C 4.8 °C 1018.2 hPa Calm     87 % 0 mm
20:01 6.8 °C 4.8 °C 1018.5 hPa Calm     87 % 0 mm
20:06 6.7 °C 4.7 °C 1018.5 hPa Calm     87 % 0 mm
20:09 6.7 °C 4.7 °C 1018.5 hPa Calm     87 % 0 mm
20:14 6.7 °C 4.7 °C 1018.5 hPa Calm     87 % 0 mm
20:15 6.7 °C 4.7 °C 1018.5 hPa Calm     87 % 0 mm
20:20 6.7 °C 4.7 °C 1018.5 hPa Calm     87 % 0 mm
20:23 6.7 °C 4.7 °C 1018.8 hPa Calm     87 % 0 mm
20:28 6.6 °C 4.6 °C 1018.8 hPa Calm     87 % 0 mm
20:29 6.6 °C 4.6 °C 1018.8 hPa Calm     87 % 0 mm
20:31 6.6 °C 4.6 °C 1018.8 hPa Calm     87 % 0 mm
20:36 6.6 °C 4.7 °C 1018.8 hPa Calm     88 % 0 mm
20:37 6.6 °C 4.8 °C 1018.8 hPa Calm     88 % 0 mm
20:42 6.6 °C 4.7 °C 1018.8 hPa Calm     88 % 0 mm
20:47 6.7 °C 4.8 °C 1018.8 hPa Calm     88 % 0 mm
20:50 6.8 °C 4.9 °C 1018.8 hPa Calm     88 % 0 mm
20:55 6.9 °C 4.9 °C 1018.8 hPa Calm     87 % 0 mm
20:57 6.9 °C 4.9 °C 1018.8 hPa Calm     87 % 0 mm
20:58 6.9 °C 4.9 °C 1018.8 hPa Calm     87 % 0 mm
21:03 6.9 °C 4.8 °C 1018.8 hPa Calm     86 % 0 mm
21:07 6.9 °C 4.7 °C 1018.8 hPa Calm     86 % 0 mm
21:12 6.7 °C 4.7 °C 1018.8 hPa Calm     87 % 0 mm
21:13 6.7 °C 4.7 °C 1018.5 hPa Calm     87 % 0 mm
21:14 6.7 °C 4.7 °C 1018.5 hPa Calm     87 % 0 mm
21:18 6.7 °C 4.7 °C 1018.8 hPa Calm     87 % 0 mm
21:21 6.7 °C 4.7 °C 1018.8 hPa Calm     87 % 0 mm
21:23 6.7 °C 4.7 °C 1018.5 hPa Calm     87 % 0 mm
21:28 6.7 °C 4.7 °C 1018.5 hPa Calm     87 % 0 mm
21:29 6.7 °C 4.7 °C 1018.5 hPa Calm     87 % 0 mm
21:34 6.7 °C 4.7 °C 1018.8 hPa Calm     87 % 0 mm
21:35 6.7 °C 4.7 °C 1018.8 hPa Calm     87 % 0 mm
21:40 6.8 °C 4.8 °C 1018.8 hPa Calm     87 % 0 mm
21:41 6.8 °C 4.8 °C 1018.8 hPa Calm     87 % 0 mm
21:46 6.9 °C 4.7 °C 1018.8 hPa Calm     86 % 0 mm
21:51 6.8 °C 4.6 °C 1018.8 hPa Calm     86 % 0 mm
21:52 6.8 °C 4.6 °C 1018.8 hPa Calm     86 % 0 mm
21:55 6.7 °C 4.6 °C 1018.8 hPa Calm     86 % 0 mm
21:57 6.7 °C 4.5 °C 1018.8 hPa Calm     86 % 0 mm
22:02 6.4 °C 4.1 °C 1018.5 hPa Calm     85 % 0 mm
22:05 6.2 °C 3.8 °C 1018.5 hPa Calm     85 % 0 mm
22:06 6.2 °C 4 °C 1018.5 hPa Calm     86 % 0 mm
22:11 5.9 °C 3.9 °C 1018.5 hPa Calm     87 % 0 mm
22:13 5.9 °C 3.9 °C 1018.5 hPa Calm     87 % 0 mm
22:16 5.9 °C 3.9 °C 1018.5 hPa Calm     87 % 0 mm
22:21 5.7 °C 3.7 °C 1018.5 hPa Calm     87 % 0 mm
22:22 5.7 °C 3.7 °C 1018.5 hPa Calm     87 % 0 mm
22:27 5.6 °C 3.8 °C 1018.5 hPa Calm     88 % 0 mm
22:28 5.6 °C 3.8 °C 1018.5 hPa Calm     88 % 0 mm
22:33 5.6 °C 3.9 °C 1018.5 hPa Calm     89 % 0 mm
22:38 5.6 °C 3.9 °C 1018.5 hPa Calm     89 % 0 mm
22:40 5.6 °C 3.9 °C 1018.5 hPa Calm     89 % 0 mm
22:42 5.7 °C 4 °C 1018.5 hPa Calm     89 % 0 mm
22:45 5.6 °C 3.9 °C 1018.5 hPa Calm     89 % 0 mm
22:49 5.7 °C 4 °C 1018.5 hPa Calm     89 % 0 mm
22:51 5.7 °C 4 °C 1018.5 hPa Calm     89 % 0 mm
22:56 5.7 °C 4.2 °C 1018.5 hPa Calm     90 % 0 mm
22:58 5.7 °C 4.2 °C 1018.5 hPa Calm     90 % 0 mm
23:03 5.8 °C 4.3 °C 1018.5 hPa Calm     90 % 0 mm
23:05 5.9 °C 4.4 °C 1018.5 hPa Calm     90 % 0 mm
23:10 6.1 °C 4.4 °C 1018.5 hPa Calm     89 % 0 mm
23:11 6.1 °C 4.4 °C 1018.5 hPa Calm     89 % 0 mm
23:13 6.1 °C 4.3 °C 1018.5 hPa Calm     88 % 0 mm
23:17 6.1 °C 4.3 °C 1018.5 hPa Calm     88 % 0 mm
23:22 5.9 °C 3.8 °C 1018.5 hPa Calm     86 % 0 mm
23:23 5.8 °C 3.7 °C 1018.5 hPa Calm     86 % 0 mm
23:27 5.6 °C 3.6 °C 1018.5 hPa Calm     87 % 0 mm
23:31 5.4 °C 3.6 °C 1018.2 hPa Calm     88 % 0 mm
23:33 5.5 °C 3.7 °C 1018.2 hPa Calm     88 % 0 mm
23:36 5.6 °C 3.8 °C 1018.5 hPa Calm     88 % 0 mm
23:39 5.7 °C 3.8 °C 1018.5 hPa Calm     88 % 0 mm
23:44 5.7 °C 3.9 °C 1018.2 hPa Calm     88 % 0 mm
23:45 5.7 °C 3.9 °C 1018.2 hPa Calm     88 % 0 mm
23:50 5.8 °C 3.9 °C 1018.2 hPa Calm     88 % 0 mm
23:51 5.8 °C 3.9 °C 1018.2 hPa Calm     88 % 0 mm
23:56 5.8 °C 3.8 °C 1017.8 hPa Calm     87 % 0 mm
23:59 5.8 °C 3.8 °C 1017.8 hPa Calm     87 % 0 mm
Park Place, Exeter, Tulare County, California, USA
Compliments of Weather Underground - 3.5 mb